Time;durP1;ratioP1;P1;durP2;ratioP2;P2;SDS_P1;SDS_P2;PMS_P1;PMS_P2;Temp;Humidity;BMP_temperature;BMP_pressure;BME280_temperature;BME280_humidity;BME280_pressure;Samples;Min_cycle;Max_cycle;Signal;HPM_P1;HPM_P2
2021/10/01 00:00:09;;;;;;;5.03;1.80;;;7.00;99.90;;;;;;6274033;22;20399;-91
2021/10/01 00:02:35;;;;;;;3.87;2.30;;;7.00;99.90;;;;;;6274006;22;20173;-91
2021/10/01 00:05:01;;;;;;;2.40;2.20;;;6.90;99.90;;;;;;6273429;22;20395;-91
2021/10/01 00:07:27;;;;;;;2.80;2.03;;;6.90;99.90;;;;;;6274900;22;20361;-91
2021/10/01 00:09:54;;;;;;;1.87;1.77;;;7.00;99.90;;;;;;6273579;22;20385;-91
2021/10/01 00:12:27;;;;;;;2.53;2.10;;;7.10;99.90;;;;;;6273876;22;20797;-91
2021/10/01 00:14:53;;;;;;;2.40;1.67;;;7.10;99.90;;;;;;6274219;22;20439;-91
2021/10/01 00:17:19;;;;;;;2.70;2.00;;;7.10;99.90;;;;;;6273211;22;20879;-91
2021/10/01 00:19:45;;;;;;;1.97;1.70;;;7.10;99.90;;;;;;6274278;22;20163;-92
2021/10/01 00:22:11;;;;;;;1.80;1.70;;;7.10;99.90;;;;;;6274482;22;20399;-91
2021/10/01 00:24:37;;;;;;;4.30;2.17;;;7.10;99.90;;;;;;6273798;22;20249;-92
2021/10/01 00:27:09;;;;;;;3.00;1.50;;;7.20;99.90;;;;;;6273964;22;20194;-91
2021/10/01 00:29:35;;;;;;;1.90;1.67;;;7.20;99.90;;;;;;6274735;22;20248;-91
2021/10/01 00:32:01;;;;;;;2.40;2.07;;;7.30;99.90;;;;;;6274244;22;20399;-92
2021/10/01 00:34:27;;;;;;;1.90;1.60;;;7.40;99.90;;;;;;6273554;22;20409;-91
2021/10/01 00:36:53;;;;;;;2.43;2.23;;;7.60;99.90;;;;;;6277178;22;20817;-90
2021/10/01 00:39:18;;;;;;;4.47;3.43;;;7.50;99.90;;;;;;6280988;22;20160;-91
2021/10/01 00:41:44;;;;;;;2.43;2.13;;;7.40;99.90;;;;;;6274355;22;20264;-91
2021/10/01 00:44:10;;;;;;;4.03;2.33;;;7.40;99.90;;;;;;6273976;22;20215;-91
2021/10/01 00:46:35;;;;;;;2.00;1.73;;;7.40;99.90;;;;;;6274214;22;20641;-91
2021/10/01 00:49:02;;;;;;;1.93;1.77;;;7.30;99.90;;;;;;6273039;22;20221;-91
2021/10/01 00:51:29;;;;;;;2.20;2.10;;;7.30;99.90;;;;;;6273471;22;20168;-91
2021/10/01 00:54:00;;;;;;;2.40;2.20;;;7.30;99.90;;;;;;6272733;22;20391;-91
2021/10/01 00:56:26;;;;;;;2.60;2.20;;;7.40;99.90;;;;;;6273710;22;20399;-92
2021/10/01 00:58:52;;;;;;;2.97;2.70;;;7.40;99.90;;;;;;6293456;22;20459;-91
2021/10/01 01:01:19;;;;;;;3.50;3.30;;;7.40;99.90;;;;;;6248338;22;20187;-92
2021/10/01 01:04:01;;;;;;;5.20;3.60;;;7.50;99.90;;;;;;6272703;22;20423;-92
2021/10/01 01:06:42;;;;;;;4.43;2.40;;;7.50;99.90;;;;;;6272824;22;20211;-91
2021/10/01 01:09:29;;;;;;;2.50;2.17;;;7.50;99.90;;;;;;6273426;22;20459;-91
2021/10/01 01:11:57;;;;;;;2.33;2.10;;;7.40;99.90;;;;;;6274156;22;20381;-92
2021/10/01 01:14:28;;;;;;;2.30;2.10;;;7.30;99.90;;;;;;6273393;22;20399;-91
2021/10/01 01:16:56;;;;;;;2.40;2.20;;;7.50;99.90;;;;;;6273278;22;20375;-91
2021/10/01 01:19:36;;;;;;;3.17;1.63;;;7.40;99.90;;;;;;6274507;22;20409;-91
2021/10/01 01:22:05;;;;;;;2.10;1.77;;;7.40;99.90;;;;;;6273910;22;20398;-91
2021/10/01 01:24:43;;;;;;;2.00;1.90;;;7.40;99.90;;;;;;6273670;22;20387;-91
2021/10/01 01:27:20;;;;;;;1.90;1.80;;;7.20;99.90;;;;;;6273373;22;20491;-91
2021/10/01 01:30:15;;;;;;;1.70;1.60;;;7.20;99.90;;;;;;6273173;22;20421;-92
2021/10/01 01:32:42;;;;;;;1.50;1.40;;;7.30;99.90;;;;;;6270278;22;20453;-91
2021/10/01 01:35:18;;;;;;;2.17;1.50;;;7.40;99.90;;;;;;6273921;22;20398;-92
2021/10/01 01:37:51;;;;;;;2.00;1.90;;;7.40;99.90;;;;;;6273304;22;20704;-91
2021/10/01 01:40:21;;;;;;;2.40;1.83;;;7.20;99.90;;;;;;6274015;22;20392;-91
2021/10/01 01:42:47;;;;;;;2.10;1.80;;;7.20;99.90;;;;;;6273938;22;20415;-91
2021/10/01 01:45:17;;;;;;;1.80;1.70;;;7.30;99.90;;;;;;6272641;22;20403;-91
2021/10/01 01:47:44;;;;;;;2.40;2.20;;;7.30;99.90;;;;;;6273093;22;20443;-91
2021/10/01 01:50:18;;;;;;;2.03;1.93;;;7.30;99.90;;;;;;6275052;22;20386;-91
2021/10/01 01:52:44;;;;;;;1.80;1.70;;;7.40;99.90;;;;;;6275136;22;20407;-91
2021/10/01 01:55:12;;;;;;;4.30;2.10;;;7.50;99.90;;;;;;6274539;22;20774;-91
2021/10/01 01:57:40;;;;;;;2.17;1.77;;;7.50;99.90;;;;;;6275245;22;20847;-91
2021/10/01 02:00:06;;;;;;;2.60;1.70;;;7.40;99.90;;;;;;6275788;22;20838;-91
2021/10/01 02:02:34;;;;;;;2.63;2.43;;;7.40;99.90;;;;;;6275741;22;20393;-91
2021/10/01 02:05:01;;;;;;;1.43;1.33;;;7.40;99.90;;;;;;6275803;22;20395;-91
2021/10/01 02:07:28;;;;;;;4.60;3.27;;;7.30;99.90;;;;;;6284857;22;20440;-90
2021/10/01 02:09:55;;;;;;;2.20;1.80;;;7.20;99.90;;;;;;6280833;22;20389;-91
2021/10/01 02:12:22;;;;;;;2.40;1.70;;;7.20;99.90;;;;;;6274591;22;20402;-91
2021/10/01 02:14:50;;;;;;;2.00;1.60;;;7.00;99.90;;;;;;6301884;22;20372;-91
2021/10/01 02:17:19;;;;;;;3.17;2.00;;;7.10;99.90;;;;;;6301748;22;20390;-91
2021/10/01 02:19:47;;;;;;;3.17;1.80;;;7.00;99.90;;;;;;6274794;22;20392;-91
2021/10/01 02:22:15;;;;;;;2.47;2.23;;;7.10;99.90;;;;;;6274998;22;20409;-91
2021/10/01 02:24:43;;;;;;;2.90;2.40;;;7.10;99.90;;;;;;6274389;22;20390;-92
2021/10/01 02:27:20;;;;;;;3.23;2.27;;;7.10;99.90;;;;;;6274327;22;20934;-91
2021/10/01 02:29:56;;;;;;;1.90;1.80;;;7.20;99.90;;;;;;6275224;22;20871;-91
2021/10/01 02:32:24;;;;;;;2.93;2.40;;;7.30;99.90;;;;;;6275591;22;20463;-91
2021/10/01 02:34:51;;;;;;;1.83;1.73;;;7.20;99.90;;;;;;6275437;22;20908;-91
2021/10/01 02:37:17;;;;;;;3.33;2.37;;;7.20;99.90;;;;;;6275211;22;20396;-91
2021/10/01 02:39:46;;;;;;;2.30;1.80;;;7.10;99.90;;;;;;6275269;22;20407;-91
2021/10/01 02:42:15;;;;;;;1.83;1.67;;;7.00;99.90;;;;;;6274725;22;20491;-91
2021/10/01 02:44:43;;;;;;;1.90;1.80;;;7.00;99.90;;;;;;6274598;22;20411;-91
2021/10/01 02:47:09;;;;;;;3.03;2.10;;;6.90;99.90;;;;;;6276104;22;20527;-91
2021/10/01 02:49:36;;;;;;;3.10;1.70;;;6.90;99.90;;;;;;6275374;22;20388;-91
2021/10/01 02:52:23;;;;;;;2.10;2.00;;;6.90;99.90;;;;;;6274025;22;20388;-91
2021/10/01 02:55:10;;;;;;;5.90;2.27;;;6.80;99.90;;;;;;6274807;22;20781;-91
2021/10/01 02:57:47;;;;;;;2.20;2.10;;;6.90;99.90;;;;;;6272881;22;20398;-91
2021/10/01 03:00:13;;;;;;;1.73;1.63;;;6.90;99.90;;;;;;6274533;22;20478;-91
2021/10/01 03:02:42;;;;;;;1.90;1.80;;;6.80;99.90;;;;;;6275028;22;20411;-90
2021/10/01 03:05:11;;;;;;;1.80;1.70;;;6.80;99.90;;;;;;6274688;22;20595;-91
2021/10/01 03:07:40;;;;;;;1.87;1.67;;;6.60;99.90;;;;;;6274538;22;20439;-91
2021/10/01 03:10:07;;;;;;;1.97;1.80;;;6.40;99.90;;;;;;6275261;22;20839;-91
2021/10/01 03:12:34;;;;;;;2.73;2.37;;;6.30;99.90;;;;;;6275595;22;20712;-91
2021/10/01 03:15:01;;;;;;;2.37;1.60;;;6.30;99.90;;;;;;6274971;22;20400;-91
2021/10/01 03:17:27;;;;;;;3.37;1.90;;;6.30;99.90;;;;;;6273984;22;20453;-92
2021/10/01 03:19:54;;;;;;;1.97;1.80;;;6.20;99.90;;;;;;6274439;22;20752;-91
2021/10/01 03:22:32;;;;;;;6.57;1.93;;;6.20;99.90;;;;;;6274477;22;20490;-91
2021/10/01 03:25:07;;;;;;;2.10;2.00;;;6.20;99.90;;;;;;6273824;22;20400;-91
2021/10/01 03:27:36;;;;;;;2.80;2.00;;;6.30;99.90;;;;;;6274319;22;20473;-91
2021/10/01 03:30:09;;;;;;;2.50;2.30;;;6.30;99.90;;;;;;6275387;22;20723;-90
2021/10/01 03:32:37;;;;;;;2.30;2.10;;;6.30;99.90;;;;;;6274667;22;20794;-90
2021/10/01 03:35:14;;;;;;;2.43;2.23;;;6.30;99.90;;;;;;6276030;22;20384;-90
2021/10/01 03:37:43;;;;;;;1.80;1.70;;;6.40;99.90;;;;;;6279116;22;20432;-90
2021/10/01 03:40:11;;;;;;;1.97;1.77;;;6.40;99.90;;;;;;6278833;22;20737;-90
2021/10/01 03:42:39;;;;;;;2.50;2.30;;;6.40;99.90;;;;;;6274870;22;20450;-90
2021/10/01 03:45:07;;;;;;;2.30;2.10;;;6.50;99.90;;;;;;6274419;22;20384;-90
2021/10/01 03:47:33;;;;;;;2.70;2.20;;;6.30;99.90;;;;;;6274181;22;20432;-90
2021/10/01 03:49:59;;;;;;;5.27;3.93;;;6.30;99.90;;;;;;6301441;22;20380;-90
2021/10/01 03:52:25;;;;;;;7.63;4.70;;;6.30;99.90;;;;;;6301977;22;20410;-90
2021/10/01 03:54:51;;;;;;;4.47;3.60;;;6.30;99.90;;;;;;6301799;22;20376;-90
2021/10/01 03:57:18;;;;;;;4.10;3.07;;;6.30;99.90;;;;;;6274096;22;20392;-90
2021/10/01 03:59:44;;;;;;;4.67;2.43;;;6.30;99.90;;;;;;6300668;22;20450;-90
2021/10/01 04:02:10;;;;;;;2.23;2.00;;;6.30;99.90;;;;;;6274933;22;20390;-90
2021/10/01 04:04:36;;;;;;;2.57;2.37;;;6.30;99.90;;;;;;6273893;22;20735;-91
2021/10/01 04:07:03;;;;;;;2.47;2.00;;;6.20;99.90;;;;;;6274218;22;20471;-90
2021/10/01 04:09:29;;;;;;;2.20;2.00;;;6.20;99.90;;;;;;6273777;22;20176;-91
2021/10/01 04:11:57;;;;;;;1.80;1.70;;;6.10;99.90;;;;;;6273433;22;20905;-91
2021/10/01 04:14:23;;;;;;;3.80;2.70;;;6.10;99.90;;;;;;6273121;22;20388;-90
2021/10/01 04:16:49;;;;;;;2.87;2.53;;;6.10;99.90;;;;;;6273740;22;20435;-89
2021/10/01 04:19:15;;;;;;;2.20;2.00;;;6.20;99.90;;;;;;6274853;22;20399;-90
2021/10/01 04:21:41;;;;;;;4.40;2.00;;;6.20;99.90;;;;;;6275088;22;20396;-90
2021/10/01 04:24:07;;;;;;;2.17;1.90;;;6.20;99.90;;;;;;6273832;22;20412;-90
2021/10/01 04:26:35;;;;;;;2.27;1.90;;;6.20;99.90;;;;;;6273192;22;20450;-90
2021/10/01 04:31:52;;;;;;;2.77;2.57;;;6.20;99.90;;;;;;6301457;22;20890;-92
2021/10/01 04:34:19;;;;;;;3.27;2.10;;;6.20;99.90;;;;;;6273224;22;20393;-93
2021/10/01 04:36:44;;;;;;;2.37;2.20;;;6.20;99.90;;;;;;6274701;22;20400;-92
2021/10/01 04:39:10;;;;;;;2.50;2.30;;;6.10;99.90;;;;;;6273875;22;20399;-89
2021/10/01 04:41:36;;;;;;;2.50;2.00;;;6.10;99.90;;;;;;6274109;22;20165;-89
2021/10/01 04:44:02;;;;;;;2.00;1.90;;;6.10;99.90;;;;;;6273712;22;20243;-91
2021/10/01 04:46:28;;;;;;;3.27;2.37;;;6.10;99.90;;;;;;6274626;22;20518;-91
2021/10/01 04:48:55;;;;;;;1.70;1.60;;;6.00;99.90;;;;;;6273675;22;20469;-91
2021/10/01 04:51:21;;;;;;;2.00;1.90;;;5.90;99.90;;;;;;6273590;22;20174;-91
2021/10/01 04:53:46;;;;;;;3.53;2.27;;;5.80;99.90;;;;;;6273973;22;20384;-91
2021/10/01 04:56:12;;;;;;;2.10;2.00;;;5.70;99.90;;;;;;6274523;22;20398;-92
2021/10/01 04:58:39;;;;;;;2.40;2.00;;;5.60;99.90;;;;;;6273918;22;20560;-91
2021/10/01 05:01:06;;;;;;;5.20;2.97;;;5.40;99.90;;;;;;6274410;22;20169;-92
2021/10/01 05:03:31;;;;;;;2.80;2.60;;;5.50;99.90;;;;;;6274375;22;20412;-92
2021/10/01 05:05:57;;;;;;;4.07;2.87;;;5.50;99.90;;;;;;6274916;22;20426;-91
2021/10/01 05:08:23;;;;;;;3.60;3.00;;;5.50;99.90;;;;;;6287211;22;20161;-91
2021/10/01 05:10:48;;;;;;;5.87;3.00;;;5.40;99.90;;;;;;6274426;22;20170;-91
2021/10/01 05:13:14;;;;;;;3.20;2.87;;;5.50;99.90;;;;;;6274040;22;20292;-92
2021/10/01 05:15:42;;;;;;;2.93;2.63;;;5.60;99.90;;;;;;6273424;22;20156;-92
2021/10/01 05:18:09;;;;;;;3.03;2.80;;;5.50;99.90;;;;;;6274007;22;20609;-89
2021/10/01 05:20:35;;;;;;;3.80;3.50;;;5.50;99.90;;;;;;6273966;22;20379;-92
2021/10/01 05:23:00;;;;;;;3.13;2.83;;;5.50;99.90;;;;;;6274029;22;20707;-92
2021/10/01 05:25:26;;;;;;;3.83;2.90;;;5.50;99.90;;;;;;6275141;22;20158;-89
2021/10/01 05:27:56;;;;;;;3.43;2.87;;;5.60;99.90;;;;;;6276225;22;20439;-92
2021/10/01 05:30:33;;;;;;;2.63;2.43;;;5.50;99.90;;;;;;6276200;22;20697;-92
2021/10/01 05:33:05;;;;;;;2.77;2.57;;;5.70;99.90;;;;;;6275843;22;20397;-91
2021/10/01 05:35:33;;;;;;;2.90;2.40;;;5.70;99.90;;;;;;6275044;22;20412;-91
2021/10/01 05:37:59;;;;;;;3.73;2.77;;;5.60;99.90;;;;;;6275385;22;20420;-91
2021/10/01 05:40:24;;;;;;;5.17;4.67;;;5.60;99.90;;;;;;6275449;22;20394;-91
2021/10/01 05:42:50;;;;;;;4.90;4.20;;;5.70;99.90;;;;;;6274811;22;20385;-91
2021/10/01 05:45:16;;;;;;;4.53;4.13;;;5.80;99.90;;;;;;6276101;22;20172;-91
2021/10/01 05:47:42;;;;;;;6.53;4.50;;;5.80;99.90;;;;;;6275280;22;20192;-91
2021/10/01 05:50:14;;;;;;;7.20;5.70;;;5.80;99.90;;;;;;6275764;22;20470;-91
2021/10/01 05:53:04;;;;;;;7.53;5.83;;;5.80;99.90;;;;;;6275664;22;20183;-91
2021/10/01 05:55:30;;;;;;;3.90;3.40;;;5.90;99.90;;;;;;6275733;22;20399;-92
2021/10/01 05:57:55;;;;;;;7.20;5.07;;;6.00;99.90;;;;;;6275368;22;20417;-91
2021/10/01 06:00:22;;;;;;;6.17;4.97;;;5.90;99.90;;;;;;6275441;22;20178;-92
2021/10/01 06:02:47;;;;;;;9.20;6.40;;;6.00;99.90;;;;;;6276071;22;20160;-92
2021/10/01 06:05:14;;;;;;;7.30;4.77;;;5.90;99.90;;;;;;6275386;22;20392;-92
2021/10/01 06:07:41;;;;;;;73.10;33.17;;;6.00;99.90;;;;;;6275875;22;20438;-91
2021/10/01 06:10:07;;;;;;;7.97;5.30;;;6.00;99.90;;;;;;6275310;22;20396;-92
2021/10/01 06:12:33;;;;;;;37.47;18.80;;;6.10;99.90;;;;;;6276111;22;20389;-92
2021/10/01 06:15:03;;;;;;;5.10;4.70;;;6.30;99.90;;;;;;6274408;22;20396;-91
2021/10/01 06:17:29;;;;;;;6.17;3.80;;;6.40;99.90;;;;;;6274627;22;20426;-92
2021/10/01 06:19:54;;;;;;;8.70;5.80;;;6.50;99.90;;;;;;6275834;22;20858;-92
2021/10/01 06:22:21;;;;;;;4.73;2.93;;;6.50;99.90;;;;;;6275935;22;20191;-92
2021/10/01 06:24:54;;;;;;;3.87;3.40;;;6.50;99.90;;;;;;6302524;22;20157;-92
2021/10/01 06:27:20;;;;;;;7.07;5.20;;;6.60;99.90;;;;;;6275065;22;21000;-92
2021/10/01 06:29:46;;;;;;;5.97;4.90;;;6.70;99.90;;;;;;6275767;22;20158;-91
2021/10/01 06:32:12;;;;;;;4.90;3.90;;;6.70;99.90;;;;;;6275564;22;20175;-91
2021/10/01 06:34:38;;;;;;;3.53;3.23;;;6.60;99.90;;;;;;6274815;22;20384;-92
2021/10/01 06:37:04;;;;;;;3.60;3.17;;;6.60;99.90;;;;;;6280026;22;20400;-91
2021/10/01 06:39:29;;;;;;;6.20;3.07;;;6.70;99.90;;;;;;6279339;22;20183;-92
2021/10/01 06:41:56;;;;;;;4.10;3.13;;;6.90;99.90;;;;;;6275211;22;20160;-91
2021/10/01 06:44:25;;;;;;;5.27;3.37;;;6.90;99.90;;;;;;6274332;22;20166;-92
2021/10/01 06:47:04;;;;;;;3.47;2.60;;;6.90;99.90;;;;;;6275390;22;20431;-92
2021/10/01 06:49:43;;;;;;;3.23;2.93;;;6.80;99.90;;;;;;6275364;22;20861;-91
2021/10/01 08:19:44;;;;;;;3.40;3.10;;;11.10;99.90;;;;;;6301708;22;20764;-92
2021/10/01 08:22:13;;;;;;;3.60;2.90;;;11.20;99.90;;;;;;6274568;22;20403;-91
2021/10/01 08:24:40;;;;;;;3.60;3.30;;;11.40;99.90;;;;;;6273532;22;20704;-92
2021/10/01 08:27:17;;;;;;;3.17;2.97;;;11.70;99.90;;;;;;6302461;22;20501;-93
2021/10/01 08:29:43;;;;;;;3.37;3.07;;;11.90;99.90;;;;;;6274456;22;20457;-92
2021/10/01 08:32:08;;;;;;;2.83;2.60;;;12.20;99.90;;;;;;6300402;22;20392;-92
2021/10/01 08:34:42;;;;;;;5.00;3.60;;;12.50;99.90;;;;;;6273273;22;20546;-90
2021/10/01 08:37:09;;;;;;;8.80;3.30;;;12.50;99.90;;;;;;6273640;22;20164;-90
2021/10/01 08:39:35;;;;;;;3.70;3.20;;;12.50;99.90;;;;;;6273604;22;20421;-90
2021/10/01 08:42:02;;;;;;;5.00;3.30;;;13.00;99.90;;;;;;6273037;22;20478;-90
2021/10/01 08:44:29;;;;;;;7.03;3.77;;;13.40;99.90;;;;;;6273242;22;20415;-90
2021/10/01 08:46:55;;;;;;;2.90;2.60;;;13.50;99.90;;;;;;6272503;22;20484;-90
2021/10/01 08:49:23;;;;;;;3.40;3.10;;;13.60;99.90;;;;;;6272549;22;20478;-90
2021/10/01 08:51:50;;;;;;;5.40;2.90;;;13.70;99.90;;;;;;6273758;22;20487;-90
2021/10/01 08:54:17;;;;;;;3.10;2.90;;;13.80;99.90;;;;;;6273021;22;20380;-90
2021/10/01 08:56:44;;;;;;;5.37;3.07;;;14.00;99.90;;;;;;6273807;22;20380;-88
2021/10/01 08:59:17;;;;;;;3.80;3.50;;;14.10;99.90;;;;;;6272261;22;20491;-90
2021/10/01 09:01:42;;;;;;;3.77;2.80;;;14.20;99.90;;;;;;6273719;22;20757;-90
2021/10/01 09:04:11;;;;;;;3.10;2.80;;;14.30;99.90;;;;;;6273534;22;20392;-90
2021/10/01 09:06:36;;;;;;;4.33;2.53;;;14.20;99.90;;;;;;6272818;22;20268;-91
2021/10/01 09:09:07;;;;;;;9.03;2.70;;;14.50;99.90;;;;;;6273485;22;20412;-90
2021/10/01 09:11:38;;;;;;;5.20;2.90;;;14.90;99.90;;;;;;6273340;22;21245;-90
2021/10/01 09:14:06;;;;;;;6.03;3.17;;;15.40;99.90;;;;;;6273133;22;20415;-90
2021/10/01 09:16:32;;;;;;;5.40;2.67;;;15.80;99.90;;;;;;6273419;22;20400;-91
2021/10/01 09:18:59;;;;;;;2.90;2.63;;;15.90;99.90;;;;;;6273493;22;20419;-90
2021/10/01 09:21:25;;;;;;;6.73;2.77;;;15.90;99.40;;;;;;6273550;22;20396;-90
2021/10/01 09:24:03;;;;;;;2.87;2.67;;;16.10;98.80;;;;;;6272552;22;20835;-90
2021/10/01 09:26:33;;;;;;;5.73;2.90;;;15.90;98.60;;;;;;6268966;22;20474;-90
2021/10/01 09:29:03;;;;;;;3.57;2.93;;;15.60;99.90;;;;;;6272868;22;20387;-90
2021/10/01 09:31:52;;;;;;;2.57;2.37;;;15.50;99.30;;;;;;6272828;22;20766;-90
2021/10/01 09:34:24;;;;;;;3.03;2.77;;;15.60;99.50;;;;;;6272321;22;20461;-90
2021/10/01 09:37:22;;;;;;;2.33;2.13;;;15.80;99.40;;;;;;6277299;22;20422;-87
2021/10/01 09:40:13;;;;;;;2.47;2.27;;;16.40;98.60;;;;;;6263330;22;20491;-90
2021/10/01 09:42:45;;;;;;;4.90;2.90;;;16.70;98.10;;;;;;6272137;22;20449;-90
2021/10/01 09:45:14;;;;;;;6.03;2.23;;;16.90;97.90;;;;;;6272370;22;20400;-90
2021/10/01 09:47:49;;;;;;;5.77;2.60;;;17.20;97.70;;;;;;6272221;22;20439;-90
2021/10/01 09:50:21;;;;;;;3.30;2.40;;;17.40;96.80;;;;;;6272325;22;21175;-90
2021/10/01 09:52:51;;;;;;;2.77;2.40;;;17.60;97.70;;;;;;6273024;22;20410;-88
2021/10/01 09:55:22;;;;;;;2.57;2.37;;;18.00;97.80;;;;;;6272324;22;20441;-88
2021/10/01 09:58:11;;;;;;;2.57;2.37;;;18.20;95.40;;;;;;6271587;22;20809;-91
2021/10/01 10:00:39;;;;;;;3.03;2.57;;;18.30;95.10;;;;;;6272455;22;20890;-90
2021/10/01 10:03:22;;;;;;;2.30;2.10;;;18.00;95.50;;;;;;6273079;22;20388;-90
2021/10/01 10:06:03;;;;;;;3.57;3.13;;;18.30;95.10;;;;;;6271469;22;20502;-89
2021/10/01 10:11:39;;;;;;;2.93;2.73;;;18.30;95.60;;;;;;6301645;22;20372;-91
2021/10/01 10:14:17;;;;;;;2.60;2.40;;;18.50;94.80;;;;;;6273808;22;20470;-90
2021/10/01 10:16:44;;;;;;;2.67;2.03;;;18.70;94.00;;;;;;6274676;22;20383;-90
2021/10/01 10:19:23;;;;;;;2.43;2.10;;;18.70;93.40;;;;;;6274273;22;20388;-91
2021/10/01 10:21:49;;;;;;;2.03;1.73;;;18.90;94.20;;;;;;6275798;22;20803;-90
2021/10/01 10:24:15;;;;;;;2.03;1.70;;;19.00;93.30;;;;;;6274306;22;20384;-90
2021/10/01 10:26:41;;;;;;;4.53;1.67;;;19.00;93.40;;;;;;6274647;22;20482;-90
2021/10/01 10:29:11;;;;;;;2.00;1.20;;;19.20;91.60;;;;;;6272973;22;20728;-90
2021/10/01 10:31:39;;;;;;;2.30;1.60;;;19.40;91.90;;;;;;6274796;22;20476;-90
2021/10/01 10:34:18;;;;;;;2.00;1.20;;;19.70;90.90;;;;;;6274185;22;20429;-90
2021/10/01 10:36:47;;;;;;;1.53;1.23;;;19.50;90.80;;;;;;6274977;22;20411;-90
2021/10/01 10:39:13;;;;;;;1.47;1.37;;;19.80;88.80;;;;;;6249187;22;20396;-90
2021/10/01 10:42:06;;;;;;;1.37;1.27;;;19.80;90.30;;;;;;6274599;22;20414;-90
2021/10/01 10:44:53;;;;;;;4.37;1.23;;;19.70;85.30;;;;;;6253781;22;20158;-90
2021/10/01 10:47:57;;;;;;;2.23;1.60;;;19.70;88.70;;;;;;6273970;22;20941;-90
2021/10/01 10:50:25;;;;;;;1.07;1.07;;;19.80;88.20;;;;;;6275254;22;20403;-90
2021/10/01 10:53:07;;;;;;;1.00;1.00;;;19.80;87.10;;;;;;6275016;22;20380;-90
2021/10/01 10:55:36;;;;;;;2.10;1.13;;;19.70;85.10;;;;;;6274574;22;20862;-90
2021/10/01 10:58:24;;;;;;;2.87;1.23;;;19.90;85.00;;;;;;6273551;22;20469;-90
2021/10/01 11:00:59;;;;;;;1.23;1.13;;;20.10;85.70;;;;;;6275070;22;20400;-90
2021/10/01 11:03:27;;;;;;;2.57;1.07;;;20.40;84.40;;;;;;6274278;22;20383;-90
2021/10/01 11:06:09;;;;;;;1.30;1.20;;;20.40;82.70;;;;;;6276312;22;20812;-90
2021/10/01 11:08:36;;;;;;;3.23;1.23;;;20.30;84.20;;;;;;6280098;22;20399;-90
2021/10/01 11:11:03;;;;;;;1.73;1.20;;;20.50;84.00;;;;;;6301713;22;20401;-90
2021/10/01 11:13:31;;;;;;;1.33;1.23;;;20.60;83.00;;;;;;6274899;22;20699;-90
2021/10/01 11:16:12;;;;;;;1.83;0.90;;;20.60;81.60;;;;;;6247928;22;20437;-90
2021/10/01 11:18:47;;;;;;;0.97;0.90;;;20.60;82.10;;;;;;6274442;22;20390;-89
2021/10/01 11:21:33;;;;;;;1.33;1.23;;;20.60;82.10;;;;;;6273630;22;20396;-90
2021/10/01 11:24:01;;;;;;;2.00;1.23;;;20.70;83.40;;;;;;6273737;22;20407;-90
2021/10/01 11:26:29;;;;;;;2.23;1.30;;;20.70;84.00;;;;;;6274068;22;20435;-90
2021/10/01 11:28:55;;;;;;;2.07;1.23;;;21.30;82.60;;;;;;6273900;22;20385;-89
2021/10/01 11:31:22;;;;;;;2.10;1.10;;;21.50;81.80;;;;;;6269612;22;20420;-90
2021/10/01 11:33:50;;;;;;;1.30;1.13;;;21.70;80.40;;;;;;6274277;22;20166;-90
2021/10/01 11:36:16;;;;;;;2.37;1.20;;;22.00;80.00;;;;;;6273857;22;20441;-89
2021/10/01 11:38:41;;;;;;;1.47;1.37;;;22.40;79.70;;;;;;6273307;22;20396;-89
2021/10/01 11:41:21;;;;;;;4.10;1.53;;;22.40;77.70;;;;;;6273902;22;20235;-89
2021/10/01 11:43:49;;;;;;;1.00;1.00;;;22.30;77.20;;;;;;6273552;22;20189;-89
2021/10/01 11:46:34;;;;;;;3.13;1.37;;;22.00;76.30;;;;;;6273108;22;20522;-89
2021/10/01 11:49:03;;;;;;;1.20;1.10;;;22.10;76.30;;;;;;6273308;22;20412;-89
2021/10/01 11:51:40;;;;;;;1.10;0.90;;;21.70;75.30;;;;;;6273125;22;20448;-89
2021/10/01 11:54:10;;;;;;;1.40;1.03;;;21.90;76.40;;;;;;6273612;22;20470;-89
2021/10/01 11:57:03;;;;;;;0.90;0.90;;;22.10;76.60;;;;;;6273795;22;20388;-89
2021/10/01 12:00:11;;;;;;;1.30;1.20;;;22.10;76.60;;;;;;6273409;22;20497;-89
2021/10/01 12:02:41;;;;;;;4.50;1.50;;;22.30;75.10;;;;;;6253637;22;20380;-89
2021/10/01 12:05:27;;;;;;;2.10;0.90;;;22.40;76.40;;;;;;6273455;22;20399;-89
2021/10/01 12:08:00;;;;;;;1.20;1.13;;;22.50;74.70;;;;;;6273009;22;20435;-89
2021/10/01 12:10:29;;;;;;;1.40;1.30;;;22.60;74.10;;;;;;6274033;22;20714;-89
2021/10/01 12:13:05;;;;;;;1.63;0.97;;;22.40;76.30;;;;;;6273811;22;20388;-90
2021/10/01 12:15:38;;;;;;;2.00;1.50;;;22.50;76.60;;;;;;6273129;22;20404;-89
2021/10/01 12:18:24;;;;;;;1.63;1.00;;;22.80;76.00;;;;;;6274421;22;20392;-89
2021/10/01 12:20:49;;;;;;;2.10;1.10;;;22.80;77.30;;;;;;6273717;22;20398;-90
2021/10/01 12:23:35;;;;;;;3.03;1.40;;;23.00;76.40;;;;;;6273830;22;20463;-90
2021/10/01 12:26:32;;;;;;;1.10;1.00;;;22.90;75.90;;;;;;6273176;22;20169;-89
2021/10/01 12:29:12;;;;;;;2.10;1.40;;;22.90;75.50;;;;;;6259294;22;20388;-89
2021/10/01 12:32:01;;;;;;;1.60;1.23;;;23.20;76.70;;;;;;6273717;22;20843;-90
2021/10/01 12:34:31;;;;;;;6.53;1.77;;;23.50;77.10;;;;;;6272930;22;20392;-89
2021/10/01 12:37:03;;;;;;;2.10;1.30;;;23.80;73.50;;;;;;6280658;22;20417;-90
2021/10/01 12:39:31;;;;;;;2.10;1.47;;;24.20;71.80;;;;;;6276789;22;20388;-90
2021/10/01 12:42:00;;;;;;;1.33;1.23;;;24.10;70.70;;;;;;6273601;22;20430;-90
2021/10/01 12:44:27;;;;;;;2.50;1.60;;;23.70;72.10;;;;;;6273039;22;20559;-89
2021/10/01 12:46:54;;;;;;;3.70;1.60;;;23.70;71.80;;;;;;6273077;22;20440;-89
2021/10/01 12:49:29;;;;;;;1.43;1.33;;;23.70;71.30;;;;;;6273278;22;20866;-89
2021/10/01 12:52:06;;;;;;;1.63;1.20;;;23.40;73.40;;;;;;6273355;22;20487;-89
2021/10/01 12:54:37;;;;;;;1.67;1.40;;;23.60;73.40;;;;;;6272948;22;20391;-89
2021/10/01 12:57:23;;;;;;;1.93;1.83;;;23.70;73.00;;;;;;6273063;22;20471;-89
2021/10/01 12:59:53;;;;;;;3.73;1.70;;;24.10;71.20;;;;;;6272632;22;20413;-89
2021/10/01 13:02:26;;;;;;;2.50;1.80;;;24.00;70.70;;;;;;6273157;22;20797;-89
2021/10/01 13:05:05;;;;;;;1.73;1.40;;;24.10;69.60;;;;;;6272915;22;20408;-89
2021/10/01 13:07:37;;;;;;;1.60;1.50;;;24.10;70.10;;;;;;6272785;22;20440;-89
2021/10/01 13:10:08;;;;;;;3.70;1.63;;;23.90;68.90;;;;;;6273295;22;20411;-89
2021/10/01 13:12:55;;;;;;;6.47;2.23;;;24.00;70.70;;;;;;6273579;22;20436;-89
2021/10/01 13:15:31;;;;;;;4.03;1.63;;;24.30;70.00;;;;;;6273687;22;20428;-89
2021/10/01 13:18:10;;;;;;;2.63;1.87;;;24.20;68.60;;;;;;6270428;22;20469;-89
2021/10/01 13:20:39;;;;;;;2.50;1.83;;;24.00;70.30;;;;;;6271114;22;20399;-89
2021/10/01 13:23:13;;;;;;;3.50;2.03;;;24.30;70.10;;;;;;6272126;22;20760;-89
2021/10/01 13:25:48;;;;;;;2.80;2.10;;;24.50;69.90;;;;;;6273248;22;20484;-89
2021/10/01 13:28:15;;;;;;;3.27;2.97;;;24.80;69.90;;;;;;6272986;22;20522;-89
2021/10/01 13:30:40;;;;;;;2.70;2.00;;;24.70;68.90;;;;;;6272791;22;20388;-89
2021/10/01 13:33:06;;;;;;;3.50;2.33;;;24.60;68.70;;;;;;6272809;22;20430;-89
2021/10/01 13:35:33;;;;;;;4.10;2.50;;;25.10;68.40;;;;;;6272360;22;20219;-89
2021/10/01 13:37:59;;;;;;;3.07;2.43;;;25.60;67.60;;;;;;6272318;22;20244;-89
2021/10/01 13:40:25;;;;;;;3.17;2.97;;;25.40;67.40;;;;;;6272852;22;20533;-89
2021/10/01 13:42:52;;;;;;;3.43;2.67;;;25.30;68.00;;;;;;6273327;22;20876;-88
2021/10/01 13:45:18;;;;;;;2.87;2.47;;;25.20;68.20;;;;;;6273444;22;20772;-88
2021/10/01 13:47:44;;;;;;;2.83;2.63;;;25.00;68.80;;;;;;6274900;22;20518;-88
2021/10/01 13:50:11;;;;;;;3.33;2.43;;;24.70;69.40;;;;;;6273778;22;20315;-88
2021/10/01 13:52:38;;;;;;;2.67;2.47;;;24.60;70.00;;;;;;6275336;22;20165;-88
2021/10/01 13:55:05;;;;;;;3.70;2.27;;;24.30;69.70;;;;;;6274271;22;20445;-88
2021/10/01 13:57:31;;;;;;;2.47;2.27;;;24.70;71.70;;;;;;6274619;22;20399;-89
2021/10/01 13:59:57;;;;;;;2.30;2.07;;;25.40;69.30;;;;;;6275214;22;20965;-88
2021/10/01 14:02:22;;;;;;;4.40;2.40;;;25.60;69.40;;;;;;6275057;22;20181;-88
2021/10/01 14:04:48;;;;;;;2.67;2.10;;;27.10;66.50;;;;;;6274490;22;20228;-88
2021/10/01 14:07:14;;;;;;;2.80;2.60;;;28.60;63.00;;;;;;6283863;22;20202;-88
2021/10/01 14:09:40;;;;;;;3.60;2.17;;;29.10;59.40;;;;;;6275113;22;20252;-88
2021/10/01 14:12:06;;;;;;;3.00;2.30;;;30.10;58.20;;;;;;6274188;22;20165;-88
2021/10/01 14:14:34;;;;;;;2.83;2.27;;;29.00;58.20;;;;;;6273342;22;20165;-88
2021/10/01 14:16:59;;;;;;;2.87;2.67;;;27.80;59.90;;;;;;6274213;22;20880;-87
2021/10/01 14:19:25;;;;;;;3.20;3.00;;;26.30;62.50;;;;;;6274651;22;20391;-88
2021/10/01 14:21:51;;;;;;;2.70;2.50;;;25.40;67.20;;;;;;6274616;22;20164;-88
2021/10/01 14:24:16;;;;;;;2.60;2.40;;;25.00;67.50;;;;;;6274621;22;20227;-88
2021/10/01 14:26:44;;;;;;;4.57;2.40;;;25.20;69.00;;;;;;6301683;22;20189;-88
2021/10/01 14:29:16;;;;;;;2.30;2.10;;;24.80;69.70;;;;;;6274228;22;20901;-87
2021/10/01 14:31:42;;;;;;;2.43;2.30;;;24.50;70.70;;;;;;6274272;22;20212;-88
2021/10/01 14:34:07;;;;;;;3.20;2.30;;;23.90;72.30;;;;;;6248410;22;20730;-88
2021/10/01 14:36:33;;;;;;;2.90;2.60;;;23.70;72.30;;;;;;6274449;22;20165;-88
2021/10/01 14:38:59;;;;;;;2.40;2.20;;;23.80;73.40;;;;;;6273999;22;20191;-88
2021/10/01 14:41:24;;;;;;;6.33;2.83;;;23.80;73.60;;;;;;6274564;22;20161;-89